Time;durP1;ratioP1;P1;durP2;ratioP2;P2;SDS_P1;SDS_P2;PMS_P1;PMS_P2;Temp;Humidity;BMP_temperature;BMP_pressure;BME280_temperature;BME280_humidity;BME280_pressure;Samples;Min_cycle;Max_cycle;Signal;HPM_P1;HPM_P2
2022/02/27 00:01:39;;;;;;;8.88;5.87;;;2.90;99.90;;;;;;4366219;32;20066;-61
2022/02/27 00:04:06;;;;;;;9.70;6.18;;;2.80;99.90;;;;;;4365739;32;20590;-60
2022/02/27 00:06:32;;;;;;;9.10;6.32;;;2.70;99.90;;;;;;4379131;32;20513;-60
2022/02/27 00:08:58;;;;;;;10.57;6.60;;;2.80;99.90;;;;;;4378946;32;20166;-60
2022/02/27 00:11:25;;;;;;;10.75;6.40;;;2.70;99.90;;;;;;4378879;32;20508;-61
2022/02/27 00:13:51;;;;;;;9.73;6.43;;;2.80;99.90;;;;;;4378600;32;20066;-61
2022/02/27 00:16:18;;;;;;;8.43;5.82;;;2.80;99.90;;;;;;4378919;32;20162;-61
2022/02/27 00:18:44;;;;;;;10.15;6.45;;;2.80;99.90;;;;;;4378693;32;20242;-60
2022/02/27 00:21:11;;;;;;;10.20;5.90;;;2.70;99.90;;;;;;4352821;32;20074;-59
2022/02/27 00:23:37;;;;;;;10.18;6.75;;;2.80;99.90;;;;;;4379076;32;20067;-60
2022/02/27 00:26:03;;;;;;;9.70;6.57;;;2.80;99.90;;;;;;4378738;32;20085;-60
2022/02/27 00:28:30;;;;;;;9.38;6.07;;;2.70;99.90;;;;;;4352162;32;20058;-61
2022/02/27 00:30:56;;;;;;;11.43;6.30;;;2.80;99.90;;;;;;4379009;32;20094;-60
2022/02/27 00:33:23;;;;;;;11.27;6.70;;;2.80;99.90;;;;;;4379014;32;20524;-60
2022/02/27 00:35:49;;;;;;;9.07;5.80;;;2.80;99.90;;;;;;4364673;32;20089;-60
2022/02/27 00:38:16;;;;;;;9.10;6.25;;;2.90;99.90;;;;;;4378346;32;20448;-61
2022/02/27 00:40:42;;;;;;;10.80;6.43;;;2.90;99.90;;;;;;4378447;32;20081;-59
2022/02/27 00:43:09;;;;;;;9.25;5.65;;;2.90;99.90;;;;;;4364308;32;20114;-60
2022/02/27 00:45:35;;;;;;;8.82;5.93;;;2.90;99.90;;;;;;4365396;32;20094;-60
2022/02/27 00:48:02;;;;;;;9.35;6.07;;;2.90;99.90;;;;;;4364358;32;20158;-60
2022/02/27 00:50:28;;;;;;;9.07;6.18;;;2.90;99.90;;;;;;4378299;32;20073;-60
2022/02/27 00:52:54;;;;;;;10.25;6.50;;;2.80;99.90;;;;;;4378021;32;20070;-61
2022/02/27 00:55:21;;;;;;;10.20;6.45;;;2.90;99.90;;;;;;4378115;32;20158;-60
2022/02/27 00:57:47;;;;;;;10.90;6.53;;;3.00;99.90;;;;;;4377871;32;20513;-61
2022/02/27 01:00:14;;;;;;;10.50;6.50;;;3.00;99.90;;;;;;4378145;32;20078;-60
2022/02/27 01:02:41;;;;;;;8.93;6.35;;;2.90;99.90;;;;;;4378319;32;20169;-60
2022/02/27 01:05:08;;;;;;;9.52;6.50;;;2.90;99.90;;;;;;4364233;32;20139;-59
2022/02/27 01:07:34;;;;;;;10.02;6.25;;;2.90;99.90;;;;;;4364067;32;20434;-60
2022/02/27 01:10:01;;;;;;;11.12;6.90;;;3.00;99.90;;;;;;4364023;32;20085;-59
2022/02/27 01:12:27;;;;;;;11.93;6.87;;;2.90;99.90;;;;;;4363736;32;20146;-61
2022/02/27 01:14:53;;;;;;;9.10;6.25;;;3.10;99.90;;;;;;4377672;32;20086;-60
2022/02/27 01:17:20;;;;;;;10.85;6.50;;;3.10;99.90;;;;;;4363725;32;20081;-61
2022/02/27 01:19:46;;;;;;;10.13;6.20;;;3.10;99.90;;;;;;4377681;32;20069;-60
2022/02/27 01:22:12;;;;;;;10.52;6.47;;;3.10;99.90;;;;;;4377742;32;20105;-61
2022/02/27 01:24:39;;;;;;;9.30;6.60;;;3.10;99.90;;;;;;4377438;32;20112;-60
2022/02/27 01:27:06;;;;;;;10.10;6.62;;;3.10;99.90;;;;;;4364204;32;20504;-61
2022/02/27 01:29:33;;;;;;;11.25;6.80;;;3.00;99.90;;;;;;4377762;32;20086;-61
2022/02/27 01:32:00;;;;;;;11.70;6.45;;;3.00;99.90;;;;;;4377927;32;20509;-61
2022/02/27 01:34:26;;;;;;;11.82;7.07;;;3.00;99.90;;;;;;4377745;32;20093;-61
2022/02/27 01:36:53;;;;;;;10.45;6.30;;;3.10;99.90;;;;;;4377543;32;20171;-60
2022/02/27 01:39:19;;;;;;;10.13;6.25;;;3.00;99.90;;;;;;4363682;32;20101;-61
2022/02/27 01:41:45;;;;;;;9.30;6.47;;;3.00;99.90;;;;;;4364214;32;20094;-60
2022/02/27 01:44:12;;;;;;;10.40;6.28;;;2.90;99.90;;;;;;4363818;32;20532;-60
2022/02/27 01:47:04;;;;;;;13.57;7.20;;;2.90;99.90;;;;;;4377682;32;20089;-59
2022/02/27 01:49:30;;;;;;;9.70;6.30;;;3.00;99.90;;;;;;4377364;32;20169;-60
2022/02/27 01:51:57;;;;;;;11.77;7.00;;;3.00;99.90;;;;;;4377386;32;20080;-60
2022/02/27 01:54:24;;;;;;;9.98;6.22;;;3.10;99.90;;;;;;4363710;32;20079;-61
2022/02/27 01:56:51;;;;;;;11.57;6.60;;;3.10;99.90;;;;;;4377863;32;20086;-62
2022/02/27 01:59:18;;;;;;;10.48;6.30;;;3.00;99.90;;;;;;4379183;32;20070;-61
2022/02/27 02:01:44;;;;;;;10.40;6.70;;;3.10;99.90;;;;;;4378678;32;20074;-60
2022/02/27 02:04:11;;;;;;;10.45;6.65;;;3.10;99.90;;;;;;4363411;32;20086;-61
2022/02/27 02:06:38;;;;;;;12.60;7.37;;;3.00;99.90;;;;;;4363672;32;20082;-60
2022/02/27 02:09:08;;;;;;;10.38;7.12;;;3.10;99.90;;;;;;4363669;32;20137;-60
2022/02/27 02:11:36;;;;;;;12.50;6.37;;;3.20;99.90;;;;;;4363639;32;20077;-59
2022/02/27 02:14:05;;;;;;;11.52;7.00;;;3.00;99.90;;;;;;4363928;32;20075;-60
2022/02/27 02:16:50;;;;;;;11.73;6.90;;;3.00;99.90;;;;;;4351192;32;20066;-60
2022/02/27 02:19:18;;;;;;;10.65;6.85;;;3.00;99.90;;;;;;4363313;32;20449;-61
2022/02/27 02:21:48;;;;;;;11.38;6.97;;;3.00;99.90;;;;;;4363360;32;20167;-59
2022/02/27 02:24:16;;;;;;;9.68;6.30;;;2.90;99.90;;;;;;4377045;32;20086;-61
2022/02/27 02:26:43;;;;;;;11.25;6.60;;;2.90;99.90;;;;;;4376944;32;20504;-61
2022/02/27 02:29:14;;;;;;;9.75;6.78;;;2.90;99.90;;;;;;4376692;32;20076;-61
2022/02/27 02:31:40;;;;;;;11.82;6.65;;;2.90;99.90;;;;;;4377190;32;20173;-61
2022/02/27 02:34:11;;;;;;;11.12;6.65;;;3.00;99.90;;;;;;4363203;32;20078;-60
2022/02/27 02:36:38;;;;;;;10.80;6.55;;;3.00;99.90;;;;;;4351326;32;20444;-60
2022/02/27 02:39:08;;;;;;;8.82;6.07;;;3.00;99.90;;;;;;4377283;32;20097;-60
2022/02/27 02:41:35;;;;;;;11.20;6.37;;;3.00;99.90;;;;;;4376989;32;20089;-61
2022/02/27 02:44:02;;;;;;;12.07;6.85;;;3.00;99.90;;;;;;4377045;32;20097;-60
2022/02/27 02:46:29;;;;;;;12.20;7.43;;;3.00;99.90;;;;;;4362665;32;20086;-61
2022/02/27 02:48:56;;;;;;;11.25;7.78;;;2.80;99.90;;;;;;4362901;32;20227;-61
2022/02/27 02:51:24;;;;;;;11.55;7.68;;;2.70;99.90;;;;;;4362877;32;20070;-61
2022/02/27 02:53:51;;;;;;;11.40;7.32;;;2.80;99.90;;;;;;4376411;32;20170;-60
2022/02/27 02:56:18;;;;;;;12.05;7.90;;;2.70;99.90;;;;;;4376553;32;20084;-60
2022/02/27 02:58:44;;;;;;;10.32;7.62;;;2.60;99.90;;;;;;4376763;32;20097;-60
2022/02/27 03:01:14;;;;;;;10.88;7.32;;;2.70;99.90;;;;;;4376531;32;20074;-60
2022/02/27 03:03:43;;;;;;;14.40;7.90;;;2.70;99.90;;;;;;4376300;32;20452;-61
2022/02/27 03:06:11;;;;;;;11.98;7.70;;;2.80;99.90;;;;;;4376500;32;20085;-61
2022/02/27 03:08:46;;;;;;;10.95;7.35;;;2.70;99.90;;;;;;4362626;32;20434;-60
2022/02/27 03:11:16;;;;;;;12.13;7.53;;;2.70;99.90;;;;;;4376488;32;20146;-58
2022/02/27 03:13:43;;;;;;;12.30;6.97;;;2.80;99.90;;;;;;4376645;32;20170;-59
2022/02/27 03:16:09;;;;;;;11.70;7.07;;;2.90;99.90;;;;;;4351311;32;20082;-59
2022/02/27 03:18:35;;;;;;;11.48;6.82;;;2.80;99.90;;;;;;4385287;32;20168;-61
2022/02/27 03:21:04;;;;;;;11.38;7.57;;;2.80;99.90;;;;;;4371164;32;20070;-60
2022/02/27 03:23:34;;;;;;;10.55;7.22;;;2.90;99.90;;;;;;4383032;32;20154;-62
2022/02/27 03:26:01;;;;;;;11.68;7.82;;;2.80;99.90;;;;;;4365119;32;20077;-61
2022/02/27 03:28:27;;;;;;;10.38;7.05;;;2.90;99.90;;;;;;4362901;32;20075;-60
2022/02/27 03:30:54;;;;;;;10.82;6.70;;;2.90;99.90;;;;;;4365479;32;20535;-59
2022/02/27 03:33:21;;;;;;;10.35;6.32;;;2.80;99.90;;;;;;4379886;32;20497;-60
2022/02/27 03:35:48;;;;;;;11.88;6.93;;;2.90;99.90;;;;;;4365881;32;20096;-61
2022/02/27 03:38:14;;;;;;;10.98;6.85;;;2.80;99.90;;;;;;4379093;32;20062;-62
2022/02/27 03:40:41;;;;;;;9.82;6.55;;;2.80;99.90;;;;;;4379326;32;20139;-61
2022/02/27 03:43:08;;;;;;;11.23;7.10;;;2.90;99.90;;;;;;4365583;32;20086;-60
2022/02/27 03:45:34;;;;;;;12.23;6.97;;;2.80;99.90;;;;;;4379379;32;20104;-61
2022/02/27 03:48:00;;;;;;;10.57;6.68;;;2.80;99.90;;;;;;4365671;32;20058;-60
2022/02/27 03:50:27;;;;;;;11.43;7.07;;;2.80;99.90;;;;;;4379072;32;20086;-60
2022/02/27 03:52:53;;;;;;;10.65;6.25;;;2.80;99.90;;;;;;4365532;32;20077;-60
2022/02/27 03:55:20;;;;;;;9.95;6.10;;;2.80;99.90;;;;;;4378938;32;20074;-60
2022/02/27 03:57:46;;;;;;;10.10;6.15;;;2.80;99.90;;;;;;4378980;32;20082;-59
2022/02/27 04:00:16;;;;;;;9.63;6.55;;;2.90;99.90;;;;;;4365391;32;20485;-60
2022/02/27 04:02:47;;;;;;;11.68;6.47;;;2.80;99.90;;;;;;4365329;32;20093;-60
2022/02/27 04:05:18;;;;;;;10.73;6.20;;;2.80;99.90;;;;;;4353489;32;20202;-60
2022/02/27 04:07:45;;;;;;;10.98;6.70;;;2.90;99.90;;;;;;4378929;32;20082;-59
2022/02/27 04:10:13;;;;;;;10.70;6.80;;;2.80;99.90;;;;;;4365550;32;20074;-60
2022/02/27 04:12:39;;;;;;;10.88;6.95;;;3.00;99.90;;;;;;4378750;32;20086;-60
2022/02/27 04:15:07;;;;;;;12.05;6.97;;;3.10;99.90;;;;;;4364990;32;20074;-59
2022/02/27 04:17:33;;;;;;;9.88;6.82;;;3.00;99.90;;;;;;4378638;32;20162;-60
2022/02/27 04:20:00;;;;;;;11.43;6.65;;;3.00;99.90;;;;;;4378896;32;20070;-59
2022/02/27 04:22:27;;;;;;;9.48;6.32;;;3.00;99.90;;;;;;4379000;32;20098;-61
2022/02/27 04:24:54;;;;;;;10.38;6.35;;;3.10;99.90;;;;;;4364662;32;20097;-59
2022/02/27 04:27:20;;;;;;;10.30;6.47;;;3.10;99.90;;;;;;4364517;32;20457;-60
2022/02/27 04:29:46;;;;;;;10.25;5.97;;;3.10;99.90;;;;;;4378462;32;20436;-60
2022/02/27 04:32:13;;;;;;;10.20;6.20;;;3.00;99.90;;;;;;4364730;32;20097;-60
2022/02/27 04:34:40;;;;;;;8.77;6.00;;;3.20;99.90;;;;;;4378690;32;20152;-60
2022/02/27 04:37:06;;;;;;;10.27;6.37;;;3.20;99.90;;;;;;4364378;32;20500;-61
2022/02/27 04:39:32;;;;;;;9.90;6.47;;;3.20;99.90;;;;;;4378555;32;20086;-61
2022/02/27 04:41:59;;;;;;;9.48;6.05;;;3.30;99.90;;;;;;4378079;32;20086;-60
2022/02/27 04:44:26;;;;;;;11.15;6.10;;;3.20;99.90;;;;;;4365469;32;20158;-61
2022/02/27 04:46:52;;;;;;;9.20;5.28;;;3.20;99.90;;;;;;4378117;32;20142;-60
2022/02/27 04:49:19;;;;;;;9.98;6.07;;;3.20;99.90;;;;;;4378776;32;20094;-61
2022/02/27 04:51:45;;;;;;;10.77;5.97;;;3.30;99.90;;;;;;4364918;32;20086;-61
2022/02/27 04:54:11;;;;;;;7.03;3.83;;;3.30;99.90;;;;;;4378255;32;20100;-60
2022/02/27 04:56:38;;;;;;;5.70;2.85;;;3.30;99.90;;;;;;4378397;32;20096;-61
2022/02/27 04:59:04;;;;;;;6.95;4.12;;;3.20;99.90;;;;;;4378791;32;20077;-61
2022/02/27 05:01:30;;;;;;;7.22;3.97;;;3.10;99.90;;;;;;4378447;32;20105;-59
2022/02/27 05:03:57;;;;;;;9.48;4.90;;;3.20;99.90;;;;;;4365530;32;20077;-60
2022/02/27 05:06:23;;;;;;;6.25;3.47;;;3.00;99.90;;;;;;4384116;32;20169;-61
2022/02/27 05:08:50;;;;;;;6.12;3.05;;;3.10;99.90;;;;;;4369446;32;20070;-59
2022/02/27 05:11:16;;;;;;;7.18;3.58;;;3.10;99.90;;;;;;4372170;32;20070;-59
2022/02/27 05:13:43;;;;;;;8.27;4.30;;;3.10;99.90;;;;;;4379592;32;20575;-61
2022/02/27 05:16:09;;;;;;;7.12;3.85;;;2.90;99.90;;;;;;4364322;32;20164;-60
2022/02/27 05:18:35;;;;;;;6.25;3.50;;;3.10;99.90;;;;;;4378215;32;20081;-59
2022/02/27 05:21:02;;;;;;;10.43;5.87;;;3.10;99.90;;;;;;4378477;32;20088;-59
2022/02/27 05:23:28;;;;;;;12.00;6.45;;;3.30;99.90;;;;;;4378427;32;20077;-60
2022/02/27 05:25:58;;;;;;;10.20;6.57;;;3.20;99.90;;;;;;4377618;32;20074;-60
2022/02/27 05:28:28;;;;;;;9.77;6.07;;;2.90;99.90;;;;;;4377872;32;20074;-59
2022/02/27 05:30:55;;;;;;;9.82;6.25;;;3.20;99.90;;;;;;4378200;32;20085;-60
2022/02/27 05:33:21;;;;;;;10.23;6.72;;;3.20;99.90;;;;;;4364809;32;20499;-60
2022/02/27 05:35:48;;;;;;;11.98;5.90;;;3.30;99.90;;;;;;4377750;32;20180;-60
2022/02/27 05:38:15;;;;;;;10.63;6.20;;;3.30;99.90;;;;;;4365353;32;20086;-60
2022/02/27 05:40:41;;;;;;;9.23;5.95;;;3.40;99.90;;;;;;4377997;32;20077;-58
2022/02/27 05:43:08;;;;;;;9.50;6.25;;;3.40;99.90;;;;;;4352349;32;20078;-59
2022/02/27 05:45:34;;;;;;;10.15;6.78;;;3.50;99.90;;;;;;4364373;32;20089;-60
2022/02/27 05:48:01;;;;;;;11.05;6.35;;;3.40;99.90;;;;;;4363773;32;20093;-60
2022/02/27 05:50:27;;;;;;;9.15;6.00;;;3.50;99.90;;;;;;4363869;32;20074;-60
2022/02/27 05:52:54;;;;;;;10.25;6.47;;;3.40;99.90;;;;;;4362492;32;20077;-60
2022/02/27 05:55:20;;;;;;;10.00;6.12;;;3.50;99.90;;;;;;4363464;32;20074;-61
2022/02/27 05:57:46;;;;;;;10.55;5.80;;;3.60;99.90;;;;;;4377644;32;20093;-60
2022/02/27 06:00:13;;;;;;;10.02;6.15;;;3.80;99.90;;;;;;4351438;32;20124;-61
2022/02/27 06:02:41;;;;;;;9.63;6.05;;;3.80;99.90;;;;;;4377773;32;20085;-59
2022/02/27 06:05:08;;;;;;;10.43;6.30;;;3.70;99.90;;;;;;4377548;32;20069;-59
2022/02/27 06:07:34;;;;;;;9.20;5.85;;;3.90;99.90;;;;;;4363497;32;20082;-60
2022/02/27 06:10:01;;;;;;;8.30;5.15;;;4.10;99.90;;;;;;4377282;32;20082;-59
2022/02/27 06:12:27;;;;;;;9.18;5.60;;;4.00;99.90;;;;;;4376988;32;20483;-60
2022/02/27 06:14:53;;;;;;;9.27;5.68;;;4.10;99.90;;;;;;4377030;32;20093;-60
2022/02/27 06:17:20;;;;;;;8.32;5.28;;;4.10;99.90;;;;;;4362966;32;20096;-59
2022/02/27 06:19:46;;;;;;;9.73;5.80;;;4.00;99.90;;;;;;4376981;32;20070;-60
2022/02/27 06:22:12;;;;;;;9.20;4.80;;;3.90;99.90;;;;;;4362992;32;20070;-60
2022/02/27 06:24:39;;;;;;;9.43;5.85;;;3.70;99.90;;;;;;4350732;32;20158;-59
2022/02/27 06:27:05;;;;;;;10.10;5.55;;;3.80;99.90;;;;;;4365775;32;20085;-63
2022/02/27 06:29:32;;;;;;;8.63;5.53;;;3.90;99.90;;;;;;4385600;32;20079;-60
2022/02/27 06:31:58;;;;;;;7.60;5.22;;;3.90;99.90;;;;;;4370241;32;20077;-61
2022/02/27 06:34:25;;;;;;;7.70;4.93;;;3.80;99.90;;;;;;4378286;32;20070;-61
2022/02/27 06:36:51;;;;;;;9.77;6.03;;;3.80;99.90;;;;;;4363201;32;20082;-59
2022/02/27 06:39:17;;;;;;;10.43;5.32;;;4.00;99.90;;;;;;4362975;32;20074;-60
2022/02/27 06:41:44;;;;;;;9.10;5.50;;;4.20;99.90;;;;;;4376712;32;20538;-59
2022/02/27 06:44:10;;;;;;;9.35;5.95;;;4.20;99.90;;;;;;4376848;32;20071;-60
2022/02/27 06:46:36;;;;;;;9.40;5.55;;;4.30;99.90;;;;;;4376359;32;20524;-61
2022/02/27 06:49:04;;;;;;;9.57;5.57;;;4.30;99.90;;;;;;4362950;32;20170;-60
2022/02/27 06:51:30;;;;;;;9.48;5.75;;;4.50;99.90;;;;;;4363252;32;20065;-59
2022/02/27 06:53:56;;;;;;;9.10;5.65;;;4.50;99.90;;;;;;4362595;32;20066;-61
2022/02/27 06:56:23;;;;;;;8.75;5.22;;;4.50;99.90;;;;;;4362786;32;20078;-59
2022/02/27 06:58:50;;;;;;;11.43;5.97;;;4.60;99.90;;;;;;4362955;32;20527;-59
2022/02/27 07:01:19;;;;;;;7.90;5.20;;;4.40;99.90;;;;;;4362615;32;20501;-59
2022/02/27 07:03:45;;;;;;;9.43;5.53;;;4.40;99.90;;;;;;4376430;32;20163;-61
2022/02/27 07:06:12;;;;;;;9.07;5.82;;;4.30;99.90;;;;;;4362410;32;20093;-59
2022/02/27 07:08:38;;;;;;;9.95;5.50;;;4.60;99.90;;;;;;4376637;32;20088;-61
2022/02/27 07:11:05;;;;;;;8.57;5.47;;;4.80;99.90;;;;;;4378328;32;20062;-60
2022/02/27 07:13:31;;;;;;;8.75;5.68;;;4.90;99.90;;;;;;4377313;32;20098;-61
2022/02/27 07:15:58;;;;;;;9.95;6.30;;;4.90;99.90;;;;;;4376902;32;20082;-60
2022/02/27 07:18:24;;;;;;;9.95;5.43;;;4.90;99.90;;;;;;4362534;32;20082;-60
2022/02/27 07:20:50;;;;;;;8.80;5.47;;;4.90;99.90;;;;;;4376211;32;20149;-59
2022/02/27 07:23:17;;;;;;;8.25;5.10;;;5.00;99.90;;;;;;4376682;32;20094;-59
2022/02/27 07:25:43;;;;;;;9.95;5.00;;;4.70;99.90;;;;;;4362502;32;20088;-59
2022/02/27 07:28:10;;;;;;;10.13;5.90;;;4.70;99.90;;;;;;4376706;32;20147;-60
2022/02/27 07:30:36;;;;;;;8.85;5.72;;;4.80;99.90;;;;;;4376554;32;20070;-60
2022/02/27 07:33:02;;;;;;;10.30;5.97;;;5.00;99.90;;;;;;4362675;32;20070;-59
2022/02/27 07:35:29;;;;;;;9.30;5.90;;;5.20;99.90;;;;;;4376195;32;20151;-60
2022/02/27 07:37:55;;;;;;;9.05;6.10;;;4.80;99.90;;;;;;4376459;32;20505;-59
2022/02/27 07:40:22;;;;;;;9.55;5.70;;;4.70;99.90;;;;;;4376403;32;20086;-59
2022/02/27 07:42:48;;;;;;;7.28;4.70;;;4.80;99.90;;;;;;4376536;32;20093;-60
2022/02/27 07:45:18;;;;;;;9.10;5.55;;;4.50;99.90;;;;;;4362363;32;20602;-59
2022/02/27 07:47:44;;;;;;;9.27;6.30;;;4.50;99.90;;;;;;4362864;32;20468;-60
2022/02/27 07:50:10;;;;;;;9.30;5.85;;;4.70;99.90;;;;;;4376529;32;20200;-60
2022/02/27 07:52:37;;;;;;;8.75;5.70;;;4.90;99.90;;;;;;4363086;32;20074;-61
2022/02/27 07:55:04;;;;;;;8.40;5.30;;;5.10;99.90;;;;;;4376356;32;20086;-60
2022/02/27 07:57:30;;;;;;;9.93;5.47;;;5.10;99.90;;;;;;4362116;32;20541;-60
2022/02/27 07:59:56;;;;;;;10.98;5.50;;;5.30;99.90;;;;;;4365720;32;20094;-60
2022/02/27 08:02:23;;;;;;;9.15;5.55;;;5.30;99.90;;;;;;4376800;32;20078;-59
2022/02/27 08:04:49;;;;;;;8.60;5.82;;;5.50;99.90;;;;;;4362290;32;20105;-59
2022/02/27 08:07:15;;;;;;;9.68;5.25;;;5.40;99.90;;;;;;4376481;32;20493;-60
2022/02/27 08:09:42;;;;;;;9.05;6.03;;;5.40;99.90;;;;;;4376437;32;20105;-59
2022/02/27 08:12:09;;;;;;;9.48;6.10;;;5.10;99.90;;;;;;4362060;32;20113;-59
2022/02/27 08:14:35;;;;;;;10.30;5.87;;;5.00;99.90;;;;;;4375731;32;20086;-60
2022/02/27 08:17:02;;;;;;;9.40;5.50;;;5.20;99.90;;;;;;4377900;32;20088;-59
2022/02/27 08:19:28;;;;;;;9.13;5.50;;;5.30;99.90;;;;;;4379544;32;20065;-59
2022/02/27 08:21:55;;;;;;;9.00;4.70;;;5.40;99.90;;;;;;4379184;32;20085;-59
2022/02/27 08:24:21;;;;;;;8.77;5.60;;;5.10;99.90;;;;;;4378664;32;20082;-60
2022/02/27 08:26:49;;;;;;;10.60;6.05;;;5.20;99.90;;;;;;4365074;32;20093;-61
2022/02/27 08:29:16;;;;;;;10.10;5.87;;;5.60;99.90;;;;;;4365122;32;20123;-60
2022/02/27 08:31:44;;;;;;;8.38;5.45;;;5.70;99.90;;;;;;4378582;32;20090;-61
2022/02/27 08:34:12;;;;;;;9.32;5.78;;;5.40;99.90;;;;;;4378430;32;20102;-59
2022/02/27 08:36:39;;;;;;;8.93;4.93;;;5.60;99.90;;;;;;4378906;32;20505;-59
2022/02/27 08:39:07;;;;;;;10.10;5.87;;;6.00;99.90;;;;;;4365167;32;20182;-59
2022/02/27 08:41:33;;;;;;;9.02;5.50;;;5.50;99.90;;;;;;4378868;32;20085;-59
2022/02/27 08:43:59;;;;;;;8.70;5.50;;;5.40;99.90;;;;;;4364579;32;20090;-60
2022/02/27 08:46:27;;;;;;;9.45;4.78;;;5.20;99.90;;;;;;4364552;32;20082;-59
2022/02/27 08:48:53;;;;;;;10.90;5.60;;;5.30;99.90;;;;;;4378745;32;20082;-60
2022/02/27 08:51:19;;;;;;;9.43;6.18;;;5.70;99.90;;;;;;4378190;32;20517;-60
2022/02/27 08:53:46;;;;;;;9.15;5.68;;;5.80;99.90;;;;;;4378504;32;20182;-60
2022/02/27 08:56:12;;;;;;;8.80;5.25;;;5.70;99.90;;;;;;4378646;32;20088;-60
2022/02/27 08:58:39;;;;;;;9.75;6.00;;;5.30;99.90;;;;;;4364295;32;20078;-59
2022/02/27 09:01:05;;;;;;;10.93;5.62;;;5.30;99.90;;;;;;4378557;32;20194;-59
2022/02/27 09:03:31;;;;;;;11.20;5.97;;;5.70;99.90;;;;;;4364506;32;20081;-60
2022/02/27 09:05:58;;;;;;;10.57;5.85;;;5.80;99.90;;;;;;4378322;32;20136;-59
2022/02/27 09:08:24;;;;;;;9.02;5.60;;;5.90;99.90;;;;;;4378339;32;20073;-60
2022/02/27 09:10:51;;;;;;;8.80;5.25;;;5.70;99.90;;;;;;4378343;32;20058;-59
2022/02/27 09:13:17;;;;;;;7.93;5.40;;;5.70;99.90;;;;;;4364027;32;20098;-59
2022/02/27 09:15:44;;;;;;;8.18;5.20;;;5.40;99.90;;;;;;4364924;32;20570;-59
2022/02/27 09:18:10;;;;;;;10.18;5.47;;;5.30;99.90;;;;;;4378161;32;20449;-59
2022/02/27 09:20:36;;;;;;;9.35;5.95;;;5.60;99.90;;;;;;4378897;32;20078;-59
2022/02/27 09:23:03;;;;;;;8.43;5.30;;;5.50;99.90;;;;;;4364303;32;20571;-59
2022/02/27 09:25:29;;;;;;;9.52;6.25;;;5.40;99.90;;;;;;4377918;32;20164;-59
2022/02/27 09:27:55;;;;;;;9.68;5.70;;;5.60;99.90;;;;;;4377447;32;20077;-59
2022/02/27 09:30:22;;;;;;;10.10;6.10;;;5.50;99.90;;;;;;4378080;32;20085;-61
2022/02/27 09:32:48;;;;;;;8.70;5.82;;;6.00;99.90;;;;;;4385130;32;20058;-59
2022/02/27 09:35:15;;;;;;;9.00;5.80;;;5.80;99.90;;;;;;4390211;32;20082;-59
2022/02/27 09:37:41;;;;;;;8.43;5.93;;;5.60;99.90;;;;;;4384687;32;20080;-59
2022/02/27 09:40:08;;;;;;;10.57;5.97;;;6.10;99.90;;;;;;4364405;32;20081;-60
2022/02/27 09:42:35;;;;;;;8.85;6.07;;;6.00;99.90;;;;;;4363898;32;20097;-59
2022/02/27 09:45:15;;;;;;;11.65;6.55;;;5.70;99.90;;;;;;3831839;37;20062;-59
2022/02/27 09:47:43;;;;;;;10.77;6.22;;;5.90;99.90;;;;;;4391043;32;20089;-60
2022/02/27 09:50:10;;;;;;;10.68;6.93;;;5.90;99.90;;;;;;4404596;32;20101;-60
2022/02/27 09:52:36;;;;;;;10.88;6.28;;;5.90;99.90;;;;;;4404912;32;20080;-60
2022/02/27 09:55:02;;;;;;;10.35;6.70;;;5.90;99.90;;;;;;4390708;32;20078;-60
2022/02/27 09:57:29;;;;;;;10.93;6.70;;;6.00;99.90;;;;;;4404645;32;20077;-60
2022/02/27 09:59:55;;;;;;;9.80;6.60;;;5.70;99.90;;;;;;4404569;32;20088;-60
2022/02/27 10:02:22;;;;;;;9.95;6.85;;;5.90;99.90;;;;;;4390691;32;20105;-59
2022/02/27 10:04:48;;;;;;;10.57;6.07;;;5.70;99.90;;;;;;4404368;32;20092;-59
2022/02/27 10:07:20;;;;;;;9.95;6.32;;;5.90;99.90;;;;;;4404767;32;20163;-59
2022/02/27 10:09:49;;;;;;;10.35;6.25;;;5.90;99.90;;;;;;4404120;32;20600;-60
2022/02/27 10:12:24;;;;;;;10.65;5.80;;;5.90;99.90;;;;;;4404617;32;20068;-59
2022/02/27 10:15:08;;;;;;;10.07;5.62;;;5.90;99.90;;;;;;4390464;32;20518;-61
2022/02/27 10:17:42;;;;;;;10.68;6.30;;;5.90;99.90;;;;;;4366767;32;20081;-59
2022/02/27 10:20:17;;;;;;;9.65;6.55;;;5.90;99.90;;;;;;4390466;32;20070;-60
2022/02/27 10:22:47;;;;;;;10.52;6.82;;;5.80;99.90;;;;;;4380736;32;20101;-60
2022/02/27 10:25:22;;;;;;;10.65;6.90;;;5.80;99.90;;;;;;4383171;32;20166;-60
2022/02/27 10:27:55;;;;;;;11.02;6.93;;;5.90;99.90;;;;;;4362855;32;20120;-59
2022/02/27 10:30:38;;;;;;;11.43;6.10;;;5.70;99.90;;;;;;4389055;32;20593;-60
2022/02/27 10:33:08;;;;;;;10.07;6.72;;;5.40;99.90;;;;;;4362965;32;20073;-61
2022/02/27 10:35:54;;;;;;;11.55;6.90;;;5.20;99.90;;;;;;4375066;32;20086;-60
2022/02/27 10:38:56;;;;;;;12.48;6.70;;;5.20;99.90;;;;;;4388947;32;20497;-60
2022/02/27 10:41:22;;;;;;;11.30;7.62;;;5.20;99.90;;;;;;4377591;32;20449;-60
2022/02/27 10:43:49;;;;;;;10.73;7.53;;;5.20;99.90;;;;;;4377384;32;20151;-60
2022/02/27 10:46:20;;;;;;;10.52;6.75;;;5.20;99.90;;;;;;4402642;32;20147;-61
2022/02/27 10:48:50;;;;;;;12.73;7.18;;;5.20;99.90;;;;;;4400673;32;20093;-60
2022/02/27 10:51:17;;;;;;;11.82;6.72;;;5.20;99.90;;;;;;4364036;32;20480;-62
2022/02/27 10:53:46;;;;;;;11.20;7.22;;;5.00;99.90;;;;;;4390372;32;20073;-60
2022/02/27 10:56:16;;;;;;;11.10;6.47;;;5.00;99.90;;;;;;4387083;32;20070;-61
2022/02/27 10:58:44;;;;;;;14.20;7.40;;;5.00;99.90;;;;;;4381144;32;20066;-59
2022/02/27 11:01:25;;;;;;;13.32;7.45;;;5.20;99.90;;;;;;4379433;32;20074;-60
2022/02/27 11:03:54;;;;;;;12.07;7.28;;;5.10;99.90;;;;;;4364998;32;20165;-59
2022/02/27 11:06:22;;;;;;;11.63;7.65;;;5.20;99.90;;;;;;4352489;32;20179;-61
2022/02/27 11:08:49;;;;;;;13.80;7.47;;;5.20;99.90;;;;;;4352229;32;20528;-60
2022/02/27 11:11:16;;;;;;;10.68;6.40;;;5.10;99.90;;;;;;4365024;32;20066;-60
2022/02/27 11:13:46;;;;;;;10.07;6.68;;;5.10;99.90;;;;;;4364704;32;20092;-58
2022/02/27 11:16:15;;;;;;;13.05;6.70;;;5.30;99.90;;;;;;4364501;32;20098;-59
2022/02/27 11:18:42;;;;;;;9.77;6.30;;;5.20;99.90;;;;;;4364451;32;20531;-59
2022/02/27 11:21:10;;;;;;;10.70;7.00;;;5.20;99.90;;;;;;4378126;32;20523;-59
2022/02/27 11:23:39;;;;;;;12.45;7.00;;;5.30;99.90;;;;;;4364790;32;20102;-60
2022/02/27 11:26:05;;;;;;;11.25;6.80;;;5.00;99.90;;;;;;4364440;32;20101;-61
2022/02/27 11:28:33;;;;;;;12.23;7.60;;;4.80;99.90;;;;;;4378353;32;20449;-61
2022/02/27 11:31:03;;;;;;;13.10;7.45;;;4.80;99.90;;;;;;4364204;32;20094;-60
2022/02/27 11:33:29;;;;;;;12.13;8.13;;;4.60;99.90;;;;;;4364479;32;20080;-59
2022/02/27 11:35:59;;;;;;;12.70;7.82;;;4.70;99.90;;;;;;4364421;32;20094;-60
2022/02/27 11:38:31;;;;;;;12.30;8.05;;;4.70;99.90;;;;;;4378013;32;20445;-60
2022/02/27 11:41:13;;;;;;;16.83;8.68;;;4.80;99.90;;;;;;4364263;32;20078;-60
2022/02/27 11:43:54;;;;;;;14.30;8.40;;;4.60;99.90;;;;;;4363821;32;20127;-60
2022/02/27 11:46:36;;;;;;;15.68;8.93;;;4.80;99.90;;;;;;4364882;32;20070;-60
2022/02/27 11:49:06;;;;;;;16.17;8.85;;;4.80;99.90;;;;;;4364379;32;20574;-60
2022/02/27 11:51:41;;;;;;;16.50;9.27;;;5.20;99.90;;;;;;4378456;32;20076;-60
2022/02/27 11:54:16;;;;;;;13.40;8.85;;;4.90;99.90;;;;;;4364543;32;20157;-60
2022/02/27 11:57:13;;;;;;;14.43;7.97;;;4.50;99.90;;;;;;4378230;32;20460;-59
2022/02/27 12:00:19;;;;;;;12.48;7.82;;;4.50;99.90;;;;;;4374556;32;20089;-60
2022/02/27 12:02:48;;;;;;;11.73;7.90;;;4.40;99.90;;;;;;4378277;32;20065;-61
2022/02/27 12:05:19;;;;;;;11.82;7.43;;;4.20;99.90;;;;;;4378079;32;20080;-60
2022/02/27 12:08:07;;;;;;;12.40;6.80;;;4.20;99.90;;;;;;4364065;32;20081;-60
2022/02/27 12:10:54;;;;;;;10.55;6.72;;;4.20;99.90;;;;;;4364811;32;20085;-60
2022/02/27 12:13:30;;;;;;;10.48;7.07;;;4.50;99.90;;;;;;4351900;32;20097;-61
2022/02/27 12:16:04;;;;;;;11.27;7.50;;;4.30;99.90;;;;;;4378751;32;20087;-59
2022/02/27 12:18:52;;;;;;;12.30;6.82;;;4.20;99.90;;;;;;4378093;32;20143;-61
2022/02/27 12:21:33;;;;;;;10.48;7.40;;;4.30;99.90;;;;;;4364628;32;20084;-59
2022/02/27 12:24:14;;;;;;;11.45;7.20;;;4.20;99.90;;;;;;4378119;32;20097;-59
2022/02/27 12:26:48;;;;;;;10.60;7.30;;;4.00;99.90;;;;;;4363707;32;20080;-60
2022/02/27 12:29:28;;;;;;;12.30;7.20;;;3.80;99.90;;;;;;4352208;32;20063;-59
2022/02/27 12:32:02;;;;;;;9.93;6.70;;;3.80;99.90;;;;;;4377911;32;20472;-59
2022/02/27 12:34:28;;;;;;;12.90;7.00;;;3.80;99.90;;;;;;4379684;32;20136;-59
2022/02/27 12:36:57;;;;;;;11.55;6.53;;;3.90;99.90;;;;;;4369282;32;20106;-58
2022/02/27 12:39:24;;;;;;;11.98;6.68;;;3.90;99.90;;;;;;4370590;32;20584;-59
2022/02/27 12:41:54;;;;;;;11.82;7.10;;;3.80;99.90;;;;;;4365877;32;20067;-59
2022/02/27 12:44:34;;;;;;;12.93;7.28;;;3.90;99.90;;;;;;4363674;32;20239;-59
2022/02/27 12:47:07;;;;;;;12.30;7.37;;;3.90;99.90;;;;;;4380443;32;20073;-59
2022/02/27 12:52:30;;;;;;;11.70;6.82;;;4.00;99.90;;;;;;4353111;32;20086;-59
2022/02/27 12:54:57;;;;;;;10.90;6.12;;;4.10;99.90;;;;;;4377283;32;20434;-60
2022/02/27 12:57:24;;;;;;;13.73;7.18;;;4.00;99.90;;;;;;4363488;32;20087;-59
2022/02/27 12:59:52;;;;;;;11.02;7.03;;;3.90;99.90;;;;;;4377026;32;20085;-60